createdAt,value
2023-03-12T00:01:59.726Z,101196.63
2023-03-12T00:04:27.254Z,101201.28
2023-03-12T00:06:54.386Z,101199.56
2023-03-12T00:09:20.955Z,101202.38
2023-03-12T00:11:47.540Z,101195.47
2023-03-12T00:14:14.122Z,101189.41
2023-03-12T00:16:40.818Z,101188.69
2023-03-12T00:19:07.412Z,101187.00
2023-03-12T00:21:33.994Z,101187.16
2023-03-12T00:24:00.513Z,101188.16
2023-03-12T00:26:27.047Z,101187.44
2023-03-12T00:28:53.816Z,101197.41
2023-03-12T00:31:27.551Z,101194.06
2023-03-12T00:33:54.571Z,101183.50
2023-03-12T00:36:24.854Z,101186.84
2023-03-12T00:38:52.299Z,101187.13
2023-03-12T00:41:21.854Z,101185.59
2023-03-12T00:43:49.258Z,101179.50
2023-03-12T00:46:15.849Z,101169.78
2023-03-12T00:48:42.422Z,101167.28
2023-03-12T00:51:09.469Z,101165.72
2023-03-12T00:53:36.161Z,101151.59
2023-03-12T00:56:04.126Z,101146.53
2023-03-12T00:58:31.020Z,101150.19
2023-03-12T01:00:57.764Z,101145.97
2023-03-12T01:03:24.565Z,101149.59
2023-03-12T01:05:54.604Z,101141.00
2023-03-12T01:08:22.033Z,101148.19
2023-03-12T01:10:48.585Z,101144.63
2023-03-12T01:13:15.218Z,101154.66
2023-03-12T01:15:41.753Z,101153.91
2023-03-12T01:18:08.698Z,101163.09
2023-03-12T01:20:35.380Z,101163.09
2023-03-12T01:23:01.917Z,101153.34
2023-03-12T01:25:28.461Z,101155.31
2023-03-12T01:27:55.115Z,101153.66
2023-03-12T01:30:21.651Z,101157.28
2023-03-12T01:32:48.311Z,101154.75
2023-03-12T01:35:14.878Z,101148.69
2023-03-12T01:37:41.383Z,101151.38
2023-03-12T01:40:08.367Z,101148.97
2023-03-12T01:42:34.869Z,101147.13
2023-03-12T01:45:03.252Z,101141.06
2023-03-12T01:47:33.301Z,101143.88
2023-03-12T01:50:01.322Z,101143.03
2023-03-12T01:52:32.001Z,101145.00
2023-03-12T01:55:07.357Z,101134.44
2023-03-12T01:57:43.111Z,101130.19
2023-03-12T02:00:13.821Z,101122.16
2023-03-12T02:02:41.392Z,101123.16
2023-03-12T02:05:17.569Z,101117.13
2023-03-12T02:07:44.108Z,101117.13
2023-03-12T02:10:11.721Z,101110.03
2023-03-12T02:12:38.326Z,101110.19
2023-03-12T02:15:05.766Z,101099.66
2023-03-12T02:17:32.586Z,101087.22
2023-03-12T02:20:25.491Z,101089.31
2023-03-12T02:23:03.138Z,101083.88
2023-03-12T02:25:36.956Z,101084.84
2023-03-12T02:28:05.112Z,101068.06
2023-03-12T02:30:32.014Z,101058.09
2023-03-12T02:33:01.404Z,101062.72
2023-03-12T02:35:27.960Z,101065.56
2023-03-12T02:37:56.253Z,101055.81
2023-03-12T02:40:29.267Z,101047.94
2023-03-12T02:42:57.145Z,101048.94
2023-03-12T02:45:25.776Z,101041.03
2023-03-12T02:47:52.727Z,101040.19
2023-03-12T02:50:19.399Z,101032.56
2023-03-12T02:52:46.039Z,101027.06
2023-03-12T02:55:12.642Z,101023.28
2023-03-12T02:57:39.279Z,101025.53
2023-03-12T03:00:11.966Z,101019.63
2023-03-12T03:02:39.885Z,101026.97
2023-03-12T03:05:06.994Z,101025.44
2023-03-12T03:07:33.626Z,101021.09
2023-03-12T03:10:04.457Z,101018.72
2023-03-12T03:12:31.839Z,101001.25
2023-03-12T03:14:58.517Z,101000.81
2023-03-12T03:17:25.476Z,100994.06
2023-03-12T03:19:52.437Z,100996.59
2023-03-12T03:22:20.495Z,100991.97
2023-03-12T03:24:47.486Z,100984.63
2023-03-12T03:27:14.240Z,100982.78
2023-03-12T03:29:41.105Z,100973.06
2023-03-12T03:32:07.719Z,100977.59
2023-03-12T03:34:34.330Z,100980.25
2023-03-12T03:37:00.847Z,100972.22
2023-03-12T03:39:29.071Z,100972.22
2023-03-12T03:41:55.788Z,100961.53
2023-03-12T03:44:23.093Z,100964.34
2023-03-12T03:46:50.008Z,100968.00
2023-03-12T03:49:16.967Z,100970.66
2023-03-12T03:51:43.843Z,100967.44
2023-03-12T03:54:11.315Z,100965.75
2023-03-12T03:56:37.851Z,100960.69
2023-03-12T03:59:04.787Z,100962.66
2023-03-12T04:01:31.482Z,100968.56
2023-03-12T04:03:59.186Z,100967.16
2023-03-12T04:06:26.381Z,100960.69
2023-03-12T04:08:53.048Z,100948.72
2023-03-12T04:11:21.180Z,100949.41
2023-03-12T04:13:48.485Z,100955.59
2023-03-12T04:16:16.197Z,100950.81
2023-03-12T04:18:43.211Z,100943.50
2023-03-12T04:21:12.016Z,100935.44
2023-03-12T04:23:39.416Z,100937.69
2023-03-12T04:26:06.700Z,100929.66
2023-03-12T04:28:34.396Z,100926.66
2023-03-12T04:31:06.948Z,100920.19
2023-03-12T04:33:36.376Z,100917.03
2023-03-12T04:36:03.035Z,100915.03
2023-03-12T04:38:30.741Z,100910.69
2023-03-12T04:41:04.821Z,100894.94
2023-03-12T04:43:32.363Z,100889.59
2023-03-12T04:45:59.106Z,100875.91
2023-03-12T04:48:26.190Z,100869.44
2023-03-12T04:50:53.281Z,100853.28
2023-03-12T04:53:20.600Z,100861.88
2023-03-12T04:55:47.597Z,100864.41
2023-03-12T04:58:14.294Z,100857.50
2023-03-12T05:00:41.443Z,100854.97
2023-03-12T05:03:08.936Z,100858.75
2023-03-12T05:05:35.982Z,100846.63
2023-03-12T05:08:03.411Z,100842.81
2023-03-12T05:10:30.036Z,100841.00
2023-03-12T05:12:56.651Z,100841.00
2023-03-12T05:15:23.166Z,100841.97
2023-03-12T05:17:49.718Z,100844.97
2023-03-12T05:20:17.699Z,100837.22
2023-03-12T05:22:44.498Z,100838.50
2023-03-12T05:25:11.490Z,100830.91
2023-03-12T05:27:38.414Z,100835.13
2023-03-12T05:30:06.487Z,100828.66
2023-03-12T05:32:33.381Z,100830.50
2023-03-12T05:34:59.896Z,100841.06
2023-03-12T05:37:26.350Z,100839.19
2023-03-12T05:39:54.642Z,100839.91
2023-03-12T05:42:21.179Z,100837.91
2023-03-12T05:44:47.718Z,100831.59
2023-03-12T05:47:14.198Z,100825.94
2023-03-12T05:49:40.833Z,100833.66
2023-03-12T05:52:07.422Z,100843.06
2023-03-12T05:54:33.968Z,100841.78
2023-03-12T05:57:00.629Z,100847.53
2023-03-12T05:59:27.228Z,100837.41
2023-03-12T06:01:53.902Z,100827.09
2023-03-12T06:04:20.468Z,100825.69
2023-03-12T06:06:47.523Z,100831.31
2023-03-12T06:09:14.079Z,100826.94
2023-03-12T06:11:40.637Z,100824.56
2023-03-12T06:14:07.150Z,100831.84
2023-03-12T06:16:33.801Z,100842.09
2023-03-12T06:19:02.501Z,100826.78
2023-03-12T06:21:31.570Z,100828.59
2023-03-12T06:23:58.659Z,100820.06
2023-03-12T06:26:25.973Z,100800.13
2023-03-12T06:28:53.259Z,100804.09
2023-03-12T06:31:21.259Z,100807.22
2023-03-12T06:33:47.845Z,100813.19
2023-03-12T06:36:14.454Z,100805.03
2023-03-12T06:38:41.090Z,100793.47
2023-03-12T06:41:14.157Z,100795.28
2023-03-12T06:43:41.636Z,100792.75
2023-03-12T06:46:12.210Z,100789.94
2023-03-12T06:48:41.265Z,100780.75
2023-03-12T06:51:13.195Z,100778.91
2023-03-12T06:53:42.260Z,100771.69
2023-03-12T06:56:09.910Z,100765.47
2023-03-12T06:58:36.790Z,100751.38
2023-03-12T07:01:04.220Z,100748.78
2023-03-12T07:03:31.233Z,100746.38
2023-03-12T07:05:58.444Z,100759.84
2023-03-12T07:08:26.571Z,100751.25
2023-03-12T07:10:53.071Z,100755.16
2023-03-12T07:13:19.641Z,100752.84
2023-03-12T07:15:46.551Z,100744.38
2023-03-12T07:18:13.701Z,100768.88
2023-03-12T07:20:42.260Z,100757.84
2023-03-12T07:23:09.647Z,100765.28
2023-03-12T07:25:38.558Z,100777.41
2023-03-12T07:28:05.442Z,100790.34
2023-03-12T07:30:33.665Z,100786.53
2023-03-12T07:33:12.021Z,100787.06
2023-03-12T07:35:39.764Z,100784.06
2023-03-12T07:38:07.301Z,100781.06
2023-03-12T07:40:34.702Z,100782.63
2023-03-12T07:43:02.220Z,100789.50
2023-03-12T07:45:28.838Z,100791.03
2023-03-12T07:47:55.512Z,100783.72
2023-03-12T07:50:22.171Z,100787.06
2023-03-12T07:52:49.264Z,100786.75
2023-03-12T07:55:16.476Z,100783.91
2023-03-12T07:57:43.109Z,100780.28
2023-03-12T08:00:10.807Z,100782.06
2023-03-12T08:02:37.727Z,100768.66
2023-03-12T08:05:04.979Z,100768.28
2023-03-12T08:07:32.590Z,100770.75
2023-03-12T08:10:00.119Z,100781.06
2023-03-12T08:12:27.250Z,100787.75
2023-03-12T08:14:53.941Z,100776.81
2023-03-12T08:17:20.588Z,100784.59
2023-03-12T08:19:47.191Z,100772.66
2023-03-12T08:22:13.738Z,100784.97
2023-03-12T08:24:40.500Z,100783.41
2023-03-12T08:27:07.066Z,100785.53
2023-03-12T08:29:33.611Z,100783.31
2023-03-12T08:32:05.056Z,100789.97
2023-03-12T08:34:33.409Z,100792.09
2023-03-12T08:37:00.053Z,100785.34
2023-03-12T08:39:26.648Z,100794.66
2023-03-12T08:41:55.356Z,100790.44
2023-03-12T08:44:23.312Z,100789.91
2023-03-12T08:46:50.408Z,100787.66
2023-03-12T08:49:17.392Z,100795.00
2023-03-12T08:51:43.982Z,100786.59
2023-03-12T08:54:10.626Z,100793.91
2023-03-12T08:56:41.782Z,100803.22
2023-03-12T08:59:12.060Z,100804.34
2023-03-12T09:01:41.782Z,100802.63
2023-03-12T09:04:10.138Z,100799.94
2023-03-12T09:06:38.372Z,100801.53
2023-03-12T09:09:05.738Z,100789.84
2023-03-12T09:11:34.122Z,100775.03
2023-03-12T09:14:46.261Z,100776.94
2023-03-12T09:16:48.323Z,100785.63
2023-03-12T09:19:15.805Z,100786.72
2023-03-12T09:21:42.496Z,100774.44
2023-03-12T09:24:10.024Z,100784.41
2023-03-12T09:26:36.537Z,100789.16
2023-03-12T09:29:03.304Z,100791.09
2023-03-12T09:31:32.956Z,100789.78
2023-03-12T09:33:59.517Z,100790.19
2023-03-12T09:36:26.135Z,100798.06
2023-03-12T09:38:52.761Z,100789.88
2023-03-12T09:41:27.385Z,100790.19
2023-03-12T09:44:02.158Z,100794.19
2023-03-12T09:46:35.298Z,100797.28
2023-03-12T09:49:10.803Z,100803.94
2023-03-12T09:51:45.863Z,100801.03
2023-03-12T09:54:36.651Z,100811.31
2023-03-12T09:57:09.404Z,100816.00
2023-03-12T09:59:37.015Z,100803.59
2023-03-12T10:02:18.388Z,100812.78
2023-03-12T10:04:59.855Z,100812.94
2023-03-12T10:07:31.450Z,100817.56
2023-03-12T10:10:30.508Z,100809.84
2023-03-12T10:13:25.354Z,100811.00
2023-03-12T10:16:22.088Z,100799.72
2023-03-12T10:19:10.640Z,100809.59
2023-03-12T10:21:58.879Z,100804.38
2023-03-12T10:24:51.529Z,100801.03
2023-03-12T10:27:18.953Z,100806.22
2023-03-12T10:29:49.173Z,100807.38
2023-03-12T10:32:21.993Z,100815.41
2023-03-12T10:35:13.072Z,100817.53
2023-03-12T10:37:44.922Z,100804.97
2023-03-12T10:40:17.737Z,100804.25
2023-03-12T10:42:44.396Z,100803.19
2023-03-12T10:45:10.865Z,100801.31
2023-03-12T10:47:44.725Z,100807.47
2023-03-12T10:50:29.733Z,100806.56
2023-03-12T10:53:22.566Z,100809.34
2023-03-12T10:56:05.637Z,100812.09
2023-03-12T10:58:42.266Z,100823.06
2023-03-12T11:01:14.822Z,100820.59
2023-03-12T11:03:42.778Z,100816.53
2023-03-12T11:06:15.537Z,100806.31
2023-03-12T11:08:43.098Z,100810.25
2023-03-12T11:11:10.390Z,100821.50
2023-03-12T11:13:41.821Z,100830.94
2023-03-12T11:16:17.642Z,100831.47
2023-03-12T11:19:02.084Z,100833.81
2023-03-12T11:21:29.934Z,100830.84
2023-03-12T11:23:56.405Z,100836.06
2023-03-12T11:26:36.648Z,100841.81
2023-03-12T11:29:17.368Z,100832.81
2023-03-12T11:31:57.821Z,100825.53
2023-03-12T11:34:31.046Z,100825.97
2023-03-12T11:37:26.542Z,100829.38
2023-03-12T11:40:30.539Z,100826.28
2023-03-12T11:43:41.732Z,100832.94
2023-03-12T11:46:18.382Z,100819.91
2023-03-12T11:49:03.517Z,100828.00
2023-03-12T11:51:52.189Z,100818.16
2023-03-12T11:54:38.631Z,100805.59
2023-03-12T11:57:26.531Z,100800.25
2023-03-12T12:00:17.322Z,100798.44
2023-03-12T12:02:56.092Z,100787.72
2023-03-12T12:05:27.533Z,100787.72
2023-03-12T12:08:03.148Z,100789.59
2023-03-12T12:10:47.233Z,100790.66
2023-03-12T12:13:41.626Z,100787.97
2023-03-12T12:16:42.538Z,100787.97
2023-03-12T12:19:28.048Z,100779.09
2023-03-12T12:22:37.833Z,100773.69
2023-03-12T12:25:38.936Z,100773.84
2023-03-12T12:28:15.593Z,100766.78
2023-03-12T12:31:13.666Z,100777.53
2023-03-12T12:33:50.522Z,100780.22
2023-03-12T12:36:18.380Z,100785.44
2023-03-12T12:39:11.414Z,100790.63
2023-03-12T12:41:43.064Z,100785.75
2023-03-12T12:44:36.304Z,100775.63
2023-03-12T12:47:06.843Z,100760.31
2023-03-12T12:49:51.037Z,100756.75
2023-03-12T12:52:22.069Z,100753.22
2023-03-12T12:55:04.614Z,100756.09
2023-03-12T12:57:36.176Z,100751.88
2023-03-12T13:00:22.093Z,100739.44
2023-03-12T13:02:50.451Z,100746.69
2023-03-12T13:05:45.902Z,100743.00
2023-03-12T13:08:34.504Z,100745.38
2023-03-12T13:11:22.227Z,100750.59
2023-03-12T13:14:11.372Z,100746.41
2023-03-12T13:16:40.088Z,100756.69
2023-03-12T13:19:27.504Z,100746.41
2023-03-12T13:22:26.319Z,100751.63
2023-03-12T13:25:14.391Z,100751.94
2023-03-12T13:27:44.465Z,100753.28
2023-03-12T13:30:33.000Z,100754.81
2023-03-12T13:33:04.114Z,100749.75
2023-03-12T13:35:36.484Z,100751.94
2023-03-12T13:38:06.708Z,100750.75
2023-03-12T13:40:36.313Z,100759.84
2023-03-12T13:43:14.564Z,100758.00
2023-03-12T13:45:47.068Z,100752.63
2023-03-12T13:48:20.674Z,100739.16
2023-03-12T13:50:55.425Z,100745.56
2023-03-12T13:53:32.302Z,100747.88
2023-03-12T13:56:10.602Z,100764.41
2023-03-12T13:59:00.152Z,100755.81
2023-03-12T14:01:36.118Z,100751.28
2023-03-12T14:04:08.793Z,100763.03
2023-03-12T14:06:56.238Z,100774.19
2023-03-12T14:09:41.503Z,100771.63
2023-03-12T14:12:20.312Z,100776.19
2023-03-12T14:15:18.921Z,100783.91
2023-03-12T14:17:45.978Z,100785.59
2023-03-12T14:20:21.410Z,100795.69
2023-03-12T14:23:12.808Z,100796.69
2023-03-12T14:25:43.634Z,100803.78
2023-03-12T14:28:20.983Z,100801.22
2023-03-12T14:31:01.079Z,100798.72
2023-03-12T14:33:33.458Z,100797.06
2023-03-12T14:36:12.225Z,100793.69
2023-03-12T14:38:44.613Z,100802.94
2023-03-12T14:41:19.915Z,100808.81
2023-03-12T14:43:46.573Z,100810.84
2023-03-12T14:46:20.025Z,100802.09
2023-03-12T14:48:51.760Z,100805.16
2023-03-12T14:51:24.615Z,100799.06
2023-03-12T14:53:52.493Z,100809.84
2023-03-12T14:56:30.407Z,100814.38
2023-03-12T14:58:58.972Z,100804.13
2023-03-12T15:01:32.419Z,100804.63
2023-03-12T15:04:03.618Z,100800.75
2023-03-12T15:06:36.529Z,100804.78
2023-03-12T15:09:05.773Z,100799.56
2023-03-12T15:11:35.869Z,100792.81
2023-03-12T15:14:14.427Z,100805.13
2023-03-12T15:16:43.381Z,100802.28
2023-03-12T15:19:14.027Z,100796.88
2023-03-12T15:21:40.703Z,100786.28
2023-03-12T15:24:11.648Z,100784.56
2023-03-12T15:26:38.260Z,100782.06
2023-03-12T15:29:13.946Z,100783.22
2023-03-12T15:31:45.987Z,100783.91
2023-03-12T15:34:18.420Z,100773.16
2023-03-12T15:36:48.091Z,100785.91
2023-03-12T15:39:31.004Z,100779.88
2023-03-12T15:42:07.625Z,100779.56
2023-03-12T15:44:47.950Z,100776.50
2023-03-12T15:47:18.734Z,100769.63
2023-03-12T15:50:09.940Z,100760.19
2023-03-12T15:52:37.859Z,100761.19
2023-03-12T15:55:12.923Z,100765.03
2023-03-12T15:57:49.965Z,100768.03
2023-03-12T16:00:21.801Z,100766.34
2023-03-12T16:03:03.978Z,100756.91
2023-03-12T16:05:34.066Z,100760.56
2023-03-12T16:08:31.672Z,100751.31
2023-03-12T16:10:58.212Z,100752.47
2023-03-12T16:13:31.177Z,100752.13
2023-03-12T16:15:58.593Z,100748.88
2023-03-12T16:18:25.285Z,100743.81
2023-03-12T16:20:52.992Z,100752.88
2023-03-12T16:23:19.648Z,100757.38
2023-03-12T16:25:49.197Z,100748.78
2023-03-12T16:28:18.611Z,100741.84
2023-03-12T16:30:45.313Z,100736.75
2023-03-12T16:33:14.654Z,100742.44
2023-03-12T16:35:41.278Z,100735.34
2023-03-12T16:38:10.600Z,100742.69
2023-03-12T16:40:39.760Z,100740.97
2023-03-12T16:43:14.651Z,100737.34
2023-03-12T16:45:46.825Z,100739.16
2023-03-12T16:48:21.652Z,100732.66
2023-03-12T16:50:51.240Z,100732.59
2023-03-12T16:53:18.814Z,100739.50
2023-03-12T16:55:52.066Z,100745.72
2023-03-12T16:58:20.548Z,100743.38
2023-03-12T17:00:48.108Z,100752.03
2023-03-12T17:03:49.207Z,100759.16
2023-03-12T17:06:22.016Z,100768.50
2023-03-12T17:08:48.654Z,100771.28
2023-03-12T17:11:24.810Z,100773.56
2023-03-12T17:13:58.634Z,100768.59
2023-03-12T17:16:25.279Z,100756.00
2023-03-12T17:18:51.886Z,100755.00
2023-03-12T17:21:20.144Z,100752.34
2023-03-12T17:23:50.191Z,100750.53
2023-03-12T17:26:18.594Z,100758.47
2023-03-12T17:28:45.164Z,100759.19
2023-03-12T17:31:11.740Z,100759.88
2023-03-12T17:33:38.501Z,100763.28
2023-03-12T17:36:08.001Z,100767.34
2023-03-12T17:38:35.554Z,100768.69
2023-03-12T17:41:02.532Z,100762.13
2023-03-12T17:43:29.575Z,100768.38
2023-03-12T17:45:56.165Z,100769.25
2023-03-12T17:48:25.735Z,100775.31
2023-03-12T17:50:52.299Z,100766.09
2023-03-12T17:53:19.976Z,100777.38
2023-03-12T17:55:47.578Z,100759.50
2023-03-12T17:58:14.057Z,100767.97
2023-03-12T18:00:40.595Z,100768.09
2023-03-12T18:03:07.175Z,100751.28
2023-03-12T18:05:33.698Z,100753.28
2023-03-12T18:08:00.196Z,100757.31
2023-03-12T18:10:26.726Z,100762.38
2023-03-12T18:12:53.295Z,100748.25
2023-03-12T18:15:19.857Z,100753.97
2023-03-12T18:17:49.655Z,100759.69
2023-03-12T18:20:25.881Z,100763.56
2023-03-12T18:23:01.892Z,100760.19
2023-03-12T18:25:28.501Z,100765.06
2023-03-12T18:27:56.646Z,100759.97
2023-03-12T18:30:23.211Z,100756.94
2023-03-12T18:32:49.835Z,100763.03
2023-03-12T18:35:16.561Z,100764.34
2023-03-12T18:37:45.437Z,100755.41
2023-03-12T18:40:12.624Z,100755.25
2023-03-12T18:42:46.489Z,100751.72
2023-03-12T18:45:13.227Z,100752.91
2023-03-12T18:47:39.779Z,100754.94
2023-03-12T18:50:08.012Z,100752.59
2023-03-12T18:52:34.833Z,100753.63
2023-03-12T18:55:01.639Z,100758.50
2023-03-12T18:57:28.446Z,100747.88
2023-03-12T18:59:55.215Z,100754.09
2023-03-12T19:02:22.280Z,100740.16
2023-03-12T19:04:49.369Z,100745.56
2023-03-12T19:07:17.851Z,100749.09
2023-03-12T19:09:44.340Z,100751.78
2023-03-12T19:12:10.869Z,100742.88
2023-03-12T19:14:37.698Z,100743.69
2023-03-12T19:17:04.477Z,100733.91
2023-03-12T19:19:30.956Z,100729.56
2023-03-12T19:21:57.497Z,100733.78
2023-03-12T19:24:24.223Z,100731.94
2023-03-12T19:26:50.785Z,100728.75
2023-03-12T19:29:17.334Z,100729.28
2023-03-12T19:31:43.903Z,100721.53
2023-03-12T19:34:10.475Z,100719.34
2023-03-12T19:36:36.959Z,100718.69
2023-03-12T19:39:06.680Z,100716.34
2023-03-12T19:41:40.653Z,100714.50
2023-03-12T19:44:07.269Z,100715.69
2023-03-12T19:46:33.845Z,100713.50
2023-03-12T19:49:00.406Z,100704.59
2023-03-12T19:51:27.066Z,100703.78
2023-03-12T19:53:53.591Z,100694.50
2023-03-12T19:56:21.066Z,100705.94
2023-03-12T19:58:48.265Z,100701.22
2023-03-12T20:01:14.789Z,100688.59
2023-03-12T20:03:43.897Z,100682.88
2023-03-12T20:06:11.654Z,100684.22
2023-03-12T20:08:38.497Z,100682.03
2023-03-12T20:11:07.848Z,100683.38
2023-03-12T20:13:35.398Z,100672.31
2023-03-12T20:16:02.382Z,100672.78
2023-03-12T20:18:28.948Z,100670.59
2023-03-12T20:20:55.608Z,100659.50
2023-03-12T20:23:22.198Z,100654.47
2023-03-12T20:25:50.175Z,100651.44
2023-03-12T20:28:17.138Z,100645.53
2023-03-12T20:30:44.154Z,100647.72
2023-03-12T20:33:10.717Z,100647.38
2023-03-12T20:35:37.892Z,100645.84
2023-03-12T20:38:04.527Z,100634.59
2023-03-12T20:40:31.298Z,100634.25
2023-03-12T20:42:57.869Z,100633.75
2023-03-12T20:45:24.364Z,100621.50
2023-03-12T20:47:51.108Z,100622.84
2023-03-12T20:50:17.784Z,100619.63
2023-03-12T20:52:45.027Z,100619.13
2023-03-12T20:55:11.630Z,100605.97
2023-03-12T20:57:38.188Z,100619.72
2023-03-12T21:00:05.540Z,100610.31
2023-03-12T21:02:32.193Z,100609.66
2023-03-12T21:04:58.729Z,100606.47
2023-03-12T21:07:25.357Z,100603.91
2023-03-12T21:09:51.868Z,100603.78
2023-03-12T21:12:18.555Z,100597.72
2023-03-12T21:14:45.132Z,100586.63
2023-03-12T21:17:13.739Z,100574.22
2023-03-12T21:19:41.691Z,100578.06
2023-03-12T21:22:08.789Z,100571.19
2023-03-12T21:24:35.955Z,100560.78
2023-03-12T21:27:02.553Z,100561.28
2023-03-12T21:29:29.132Z,100556.06
2023-03-12T21:31:55.746Z,100551.03
2023-03-12T21:34:23.200Z,100543.13
2023-03-12T21:36:49.724Z,100542.47
2023-03-12T21:39:17.201Z,100531.03
2023-03-12T21:41:43.742Z,100522.47
2023-03-12T21:44:10.280Z,100520.97
2023-03-12T21:46:36.973Z,100516.59
2023-03-12T21:49:03.700Z,100513.25
2023-03-12T21:51:30.312Z,100498.31
2023-03-12T21:53:58.132Z,100495.81
2023-03-12T21:56:28.047Z,100498.63
2023-03-12T21:58:56.947Z,100489.09
2023-03-12T22:01:24.691Z,100484.03
2023-03-12T22:03:51.547Z,100484.88
2023-03-12T22:06:18.115Z,100482.38
2023-03-12T22:08:49.209Z,100476.16
2023-03-12T22:11:16.665Z,100472.66
2023-03-12T22:13:43.321Z,100475.47
2023-03-12T22:16:12.903Z,100468.63
2023-03-12T22:18:41.980Z,100465.94
2023-03-12T22:21:14.743Z,100463.91
2023-03-12T22:23:41.247Z,100453.34
2023-03-12T22:26:08.068Z,100450.81
2023-03-12T22:28:35.486Z,100438.75
2023-03-12T22:31:07.553Z,100437.38
2023-03-12T22:33:37.066Z,100437.25
2023-03-12T22:36:08.513Z,100438.91
2023-03-12T22:38:36.714Z,100439.06
2023-03-12T22:41:27.021Z,100428.84
2023-03-12T22:43:56.132Z,100423.31
2023-03-12T22:46:24.728Z,100418.94
2023-03-12T22:48:57.369Z,100407.25
2023-03-12T22:51:24.435Z,100407.25
2023-03-12T22:53:51.399Z,100402.72
2023-03-12T22:56:18.134Z,100396.84
2023-03-12T22:58:44.909Z,100390.47
2023-03-12T23:01:14.091Z,100391.16
2023-03-12T23:03:42.572Z,100376.03
2023-03-12T23:06:15.342Z,100371.69
2023-03-12T23:08:42.216Z,100370.69
2023-03-12T23:11:10.304Z,100367.16
2023-03-12T23:13:39.098Z,100367.84
2023-03-12T23:16:11.619Z,100351.78
2023-03-12T23:18:38.482Z,100345.91
2023-03-12T23:21:08.041Z,100331.66
2023-03-12T23:23:35.595Z,100321.78
2023-03-12T23:26:03.260Z,100314.56
2023-03-12T23:28:32.171Z,100302.16
2023-03-12T23:31:07.510Z,100293.28
2023-03-12T23:33:34.969Z,100290.63
2023-03-12T23:36:07.400Z,100275.50
2023-03-12T23:38:37.509Z,100268.47
2023-03-12T23:41:10.250Z,100263.13
2023-03-12T23:43:36.738Z,100261.28
2023-03-12T23:46:05.164Z,100250.56
2023-03-12T23:48:33.200Z,100246.19
2023-03-12T23:51:14.391Z,100237.50
2023-03-12T23:53:43.005Z,100224.75
2023-03-12T23:56:12.666Z,100223.09
2023-03-12T23:58:39.213Z,100212.38
